Terminal Aerodrome Forecast
Issued by NWS

Home | Current Version | Previous Version | Graphics & Text | Print | Product List | Glossary Off
Versions: 1 2 3 4 5 6 7 8 9 10 11 12 13 14 15 16

532
FTUS43 KMPX 281721
TAFAXN
TAF
KAXN 281721Z 2818/2918 34009KT P6SM SCT250
     FM290600 01008KT P6SM SCT250
     FM291000 05007KT P6SM SCT250
     FM291400 08008KT P6SM SCT250=

USA.gov is the U.S. government's official web portal to all federal, state and local government web resources and services.